createdAt,value
2022-09-03T00:00:37.550Z,46.26
2022-09-03T00:03:16.032Z,46.57
2022-09-03T00:05:51.688Z,46.55
2022-09-03T00:08:40.817Z,46.47
2022-09-03T00:11:17.567Z,46.74
2022-09-03T00:13:51.283Z,47.11
2022-09-03T00:16:21.785Z,47.10
2022-09-03T00:18:55.268Z,47.18
2022-09-03T00:21:49.335Z,47.34
2022-09-03T00:24:19.407Z,47.37
2022-09-03T00:26:51.898Z,47.49
2022-09-03T00:29:24.248Z,47.44
2022-09-03T00:31:56.256Z,47.47
2022-09-03T00:34:26.669Z,47.50
2022-09-03T00:36:53.831Z,47.29
2022-09-03T00:39:22.562Z,47.69
2022-09-03T00:42:15.073Z,47.98
2022-09-03T00:45:00.846Z,47.98
2022-09-03T00:47:45.563Z,47.88
2022-09-03T00:50:30.089Z,48.16
2022-09-03T00:53:23.107Z,48.15
2022-09-03T00:55:58.670Z,48.30
2022-09-03T00:58:34.156Z,48.64
2022-09-03T01:01:11.048Z,48.64
2022-09-03T01:04:07.660Z,48.75
2022-09-03T01:06:49.928Z,48.50
2022-09-03T01:09:38.486Z,48.85
2022-09-03T01:12:18.457Z,48.96
2022-09-03T01:15:06.431Z,48.94
2022-09-03T01:17:59.318Z,49.00
2022-09-03T01:20:35.573Z,48.91
2022-09-03T01:23:24.841Z,49.06
2022-09-03T01:26:22.920Z,49.35
2022-09-03T01:28:58.406Z,49.44
2022-09-03T01:31:43.995Z,49.55
2022-09-03T01:34:20.108Z,49.20
2022-09-03T01:37:12.705Z,49.34
2022-09-03T01:39:55.158Z,49.36
2022-09-03T01:43:00.178Z,49.16
2022-09-03T01:45:53.015Z,49.28
2022-09-03T01:49:00.891Z,49.49
2022-09-03T01:51:32.272Z,49.68
2022-09-03T01:54:38.140Z,49.91
2022-09-03T01:57:38.635Z,50.30
2022-09-03T02:00:13.640Z,50.22
2022-09-03T02:02:43.651Z,50.21
2022-09-03T02:05:24.293Z,50.38
2022-09-03T02:07:54.855Z,50.32
2022-09-03T02:10:38.423Z,50.38
2022-09-03T02:13:09.497Z,50.34
2022-09-03T02:15:40.088Z,50.39
2022-09-03T02:18:13.567Z,49.88
2022-09-03T02:20:40.279Z,50.15
2022-09-03T02:23:07.016Z,50.04
2022-09-03T02:25:39.874Z,50.30
2022-09-03T02:28:17.233Z,49.98
2022-09-03T02:30:44.542Z,50.12
2022-09-03T02:33:11.286Z,50.45
2022-09-03T02:35:38.170Z,50.66
2022-09-03T02:38:13.060Z,50.20
2022-09-03T02:40:39.751Z,50.67
2022-09-03T02:43:13.439Z,50.23
2022-09-03T02:45:45.555Z,50.44
2022-09-03T02:48:13.933Z,50.62
2022-09-03T02:50:42.136Z,50.35
2022-09-03T02:53:09.679Z,50.33
2022-09-03T02:55:36.310Z,50.29
2022-09-03T02:58:03.473Z,50.15
2022-09-03T03:00:30.012Z,50.32
2022-09-03T03:02:56.589Z,50.37
2022-09-03T03:05:30.863Z,50.68
2022-09-03T03:07:58.377Z,50.79
2022-09-03T03:10:25.352Z,50.70
2022-09-03T03:12:51.939Z,50.20
2022-09-03T03:15:19.467Z,50.15
2022-09-03T03:17:46.067Z,50.28
2022-09-03T03:20:12.617Z,50.19
2022-09-03T03:22:39.212Z,50.07
2022-09-03T03:25:06.197Z,50.00
2022-09-03T03:27:32.720Z,49.69
2022-09-03T03:29:59.291Z,49.77
2022-09-03T03:32:26.721Z,49.98
2022-09-03T03:34:53.262Z,49.58
2022-09-03T03:37:19.786Z,50.04
2022-09-03T03:39:46.408Z,50.04
2022-09-03T03:42:14.238Z,49.78
2022-09-03T03:44:42.373Z,49.80
2022-09-03T03:47:08.916Z,49.81
2022-09-03T03:49:35.548Z,49.99
2022-09-03T03:52:03.246Z,50.30
2022-09-03T03:54:29.952Z,50.30
2022-09-03T03:56:57.087Z,50.06
2022-09-03T03:59:23.619Z,50.25
2022-09-03T04:01:50.844Z,50.22
2022-09-03T04:04:17.423Z,50.52
2022-09-03T04:06:43.969Z,50.44
2022-09-03T04:09:10.549Z,50.50
2022-09-03T04:11:37.067Z,50.57
2022-09-03T04:14:03.660Z,50.78
2022-09-03T04:16:30.301Z,50.78
2022-09-03T04:18:57.053Z,50.85
2022-09-03T04:21:28.908Z,50.68
2022-09-03T04:23:56.828Z,50.86
2022-09-03T04:26:31.923Z,50.98
2022-09-03T04:29:01.102Z,51.01
2022-09-03T04:31:28.086Z,50.61
2022-09-03T04:33:55.048Z,51.07
2022-09-03T04:36:23.982Z,51.02
2022-09-03T04:38:54.159Z,51.13
2022-09-03T04:41:24.934Z,51.29
2022-09-03T04:43:53.066Z,51.36
2022-09-03T04:46:21.032Z,51.11
2022-09-03T04:48:51.245Z,51.31
2022-09-03T04:51:21.506Z,51.45
2022-09-03T04:53:53.331Z,51.29
2022-09-03T04:56:23.006Z,51.55
2022-09-03T04:58:53.947Z,51.45
2022-09-03T05:01:23.367Z,51.69
2022-09-03T05:03:52.367Z,51.88
2022-09-03T05:06:19.214Z,51.55
2022-09-03T05:08:54.325Z,51.93
2022-09-03T05:11:21.480Z,51.74
2022-09-03T05:13:49.767Z,51.89
2022-09-03T05:16:17.984Z,51.70
2022-09-03T05:18:45.099Z,52.11
2022-09-03T05:21:13.776Z,51.91
2022-09-03T05:23:43.011Z,52.13
2022-09-03T05:26:13.300Z,51.86
2022-09-03T05:28:42.874Z,51.78
2022-09-03T05:31:12.042Z,51.58
2022-09-03T05:33:46.440Z,51.50
2022-09-03T05:36:16.055Z,51.60
2022-09-03T05:38:43.424Z,51.69
2022-09-03T05:41:12.346Z,51.81
2022-09-03T05:43:39.710Z,51.83
2022-09-03T05:46:17.014Z,51.70
2022-09-03T05:48:43.694Z,52.01
2022-09-03T05:51:16.566Z,51.95
2022-09-03T05:53:48.313Z,52.03
2022-09-03T05:56:21.004Z,51.71
2022-09-03T05:58:50.018Z,51.56
2022-09-03T06:01:25.056Z,51.91
2022-09-03T06:04:01.331Z,52.16
2022-09-03T06:06:30.071Z,52.29
2022-09-03T06:08:59.457Z,51.99
2022-09-03T06:11:28.734Z,52.09
2022-09-03T06:13:56.710Z,51.84
2022-09-03T06:16:31.541Z,52.55
2022-09-03T06:18:59.807Z,52.10
2022-09-03T06:21:27.007Z,51.54
2022-09-03T06:23:59.643Z,51.49
2022-09-03T06:26:28.850Z,51.41
2022-09-03T06:28:56.907Z,51.64
2022-09-03T06:31:24.157Z,51.35
2022-09-03T06:33:50.734Z,51.42
2022-09-03T06:36:19.464Z,51.37
2022-09-03T06:38:47.249Z,51.49
2022-09-03T06:41:26.334Z,51.50
2022-09-03T06:44:05.048Z,51.48
2022-09-03T06:46:36.393Z,52.21
2022-09-03T06:49:03.352Z,52.69
2022-09-03T06:51:32.781Z,52.32
2022-09-03T06:54:01.706Z,53.19
2022-09-03T06:56:28.249Z,53.70
2022-09-03T06:58:57.421Z,54.11
2022-09-03T07:01:26.890Z,54.98
2022-09-03T07:03:56.358Z,53.96
2022-09-03T07:06:25.001Z,53.75
2022-09-03T07:08:51.915Z,55.11
2022-09-03T07:11:22.586Z,55.63
2022-09-03T07:13:51.861Z,55.61
2022-09-03T07:16:21.122Z,54.96
2022-09-03T07:18:48.774Z,55.24
2022-09-03T07:21:26.475Z,55.42
2022-09-03T07:23:54.291Z,54.25
2022-09-03T07:26:30.334Z,56.47
2022-09-03T07:28:58.364Z,56.74
2022-09-03T07:31:28.133Z,55.81
2022-09-03T07:33:55.764Z,55.75
2022-09-03T07:36:24.182Z,56.73
2022-09-03T07:38:51.279Z,58.18
2022-09-03T07:41:28.452Z,57.93
2022-09-03T07:43:55.619Z,57.93
2022-09-03T07:46:25.056Z,56.89
2022-09-03T07:48:56.077Z,57.71
2022-09-03T07:51:26.618Z,58.30
2022-09-03T07:53:57.601Z,57.87
2022-09-03T07:56:25.599Z,57.48
2022-09-03T07:58:52.163Z,57.28
2022-09-03T08:01:21.428Z,57.50
2022-09-03T08:03:50.607Z,57.59
2022-09-03T08:06:19.815Z,58.05
2022-09-03T08:08:46.674Z,58.01
2022-09-03T08:11:19.348Z,59.10
2022-09-03T08:13:48.542Z,62.63
2022-09-03T08:16:18.616Z,60.90
2022-09-03T08:18:46.032Z,60.76
2022-09-03T08:21:15.836Z,61.60
2022-09-03T08:23:47.495Z,61.95
2022-09-03T08:26:15.521Z,62.46
2022-09-03T08:28:43.125Z,63.65
2022-09-03T08:31:14.116Z,64.91
2022-09-03T08:33:43.159Z,66.01
2022-09-03T08:36:17.509Z,67.15
2022-09-03T08:38:46.284Z,67.36
2022-09-03T08:41:18.669Z,68.90
2022-09-03T08:44:05.272Z,69.64
2022-09-03T08:46:44.158Z,70.72
2022-09-03T08:49:14.471Z,70.95
2022-09-03T08:51:42.971Z,72.77
2022-09-03T08:54:12.248Z,73.99
2022-09-03T08:56:42.062Z,74.98
2022-09-03T08:59:09.755Z,74.01
2022-09-03T09:01:55.077Z,73.19
2022-09-03T09:04:47.480Z,71.09
2022-09-03T09:07:39.261Z,68.73
2022-09-03T09:10:33.686Z,66.36
2022-09-03T09:13:07.908Z,66.13
2022-09-03T09:15:55.849Z,66.83
2022-09-03T09:18:59.504Z,66.78
2022-09-03T09:21:36.047Z,66.95
2022-09-03T09:24:10.553Z,63.43
2022-09-03T09:26:43.337Z,63.60
2022-09-03T09:29:12.074Z,64.37
2022-09-03T09:31:40.901Z,61.59
2022-09-03T09:34:08.946Z,62.72
2022-09-03T09:36:56.155Z,61.44
2022-09-03T09:39:23.416Z,62.85
2022-09-03T09:42:09.561Z,59.45
2022-09-03T09:44:37.626Z,59.37
2022-09-03T09:47:21.058Z,58.58
2022-09-03T09:49:58.119Z,59.31
2022-09-03T09:52:28.630Z,59.86
2022-09-03T09:55:08.261Z,59.50
2022-09-03T09:57:35.296Z,58.61
2022-09-03T10:00:15.904Z,61.11
2022-09-03T10:02:56.775Z,61.48
2022-09-03T10:05:36.852Z,62.32
2022-09-03T10:08:07.367Z,63.07
2022-09-03T10:10:37.837Z,62.16
2022-09-03T10:13:12.990Z,64.40
2022-09-03T10:15:58.832Z,64.59
2022-09-03T10:18:38.038Z,63.46
2022-09-03T10:21:07.853Z,63.07
2022-09-03T10:24:15.580Z,63.33
2022-09-03T10:26:45.987Z,62.21
2022-09-03T10:29:16.145Z,62.36
2022-09-03T10:32:04.126Z,61.24
2022-09-03T10:34:37.399Z,59.73
2022-09-03T10:37:41.018Z,59.30
2022-09-03T10:40:30.814Z,56.94
2022-09-03T10:43:08.465Z,57.07
2022-09-03T10:45:59.355Z,57.43
2022-09-03T10:48:46.006Z,57.88
2022-09-03T10:51:34.151Z,55.72
2022-09-03T10:54:03.741Z,56.52
2022-09-03T10:56:31.138Z,55.87
2022-09-03T10:59:28.594Z,55.71
2022-09-03T11:02:28.213Z,55.78
2022-09-03T11:05:00.529Z,54.61
2022-09-03T11:07:37.584Z,54.04
2022-09-03T11:10:13.297Z,54.79
2022-09-03T11:12:45.367Z,55.49
2022-09-03T11:15:27.566Z,55.14
2022-09-03T11:18:16.066Z,53.53
2022-09-03T11:20:44.053Z,53.77
2022-09-03T11:23:13.503Z,52.92
2022-09-03T11:25:51.465Z,54.53
2022-09-03T11:28:24.646Z,55.01
2022-09-03T11:31:05.479Z,55.21
2022-09-03T11:33:36.041Z,54.26
2022-09-03T11:36:06.560Z,54.69
2022-09-03T11:38:33.294Z,52.91
2022-09-03T11:41:27.087Z,52.88
2022-09-03T11:43:54.933Z,52.94
2022-09-03T11:46:21.779Z,53.53
2022-09-03T11:48:50.896Z,52.36
2022-09-03T11:51:38.117Z,52.45
2022-09-03T11:54:13.768Z,53.25
2022-09-03T11:56:42.606Z,51.29
2022-09-03T11:59:14.983Z,49.27
2022-09-03T12:01:57.632Z,50.00
2022-09-03T12:04:40.903Z,50.30
2022-09-03T12:07:13.036Z,50.50
2022-09-03T12:10:13.854Z,48.85
2022-09-03T12:12:55.190Z,48.54
2022-09-03T12:15:46.126Z,48.59
2022-09-03T12:18:22.562Z,49.92
2022-09-03T12:21:00.990Z,49.62
2022-09-03T12:23:45.007Z,49.93
2022-09-03T12:26:17.328Z,48.70
2022-09-03T12:28:49.975Z,49.85
2022-09-03T12:31:25.361Z,49.08
2022-09-03T12:33:59.237Z,47.99
2022-09-03T12:36:27.660Z,48.90
2022-09-03T12:39:11.576Z,48.71
2022-09-03T12:41:39.265Z,49.23
2022-09-03T12:44:05.978Z,50.37
2022-09-03T12:46:34.303Z,50.54
2022-09-03T12:52:06.124Z,50.18
2022-09-03T12:54:39.789Z,50.48
2022-09-03T12:57:06.680Z,49.13
2022-09-03T12:59:37.062Z,48.14
2022-09-03T13:02:14.043Z,49.02
2022-09-03T13:04:41.514Z,49.06
2022-09-03T13:07:21.841Z,48.37
2022-09-03T13:09:48.572Z,48.91
2022-09-03T13:12:32.056Z,48.73
2022-09-03T13:15:06.858Z,48.70
2022-09-03T13:18:10.519Z,48.97
2022-09-03T13:20:39.801Z,49.14
2022-09-03T13:23:15.781Z,48.92
2022-09-03T13:25:49.018Z,48.94
2022-09-03T13:28:51.202Z,49.54
2022-09-03T13:31:43.765Z,49.65
2022-09-03T13:34:40.798Z,49.99
2022-09-03T13:37:43.039Z,51.42
2022-09-03T13:40:24.435Z,51.73
2022-09-03T13:43:02.839Z,51.17
2022-09-03T13:45:39.744Z,51.18
2022-09-03T13:48:39.802Z,51.18
2022-09-03T13:51:12.180Z,51.00
2022-09-03T13:53:50.959Z,50.62
2022-09-03T13:56:43.541Z,49.85
2022-09-03T13:59:28.524Z,49.85
2022-09-03T14:02:23.067Z,49.74
2022-09-03T14:05:03.607Z,49.14
2022-09-03T14:08:02.234Z,48.76
2022-09-03T14:10:45.812Z,47.96
2022-09-03T14:13:46.189Z,47.17
2022-09-03T14:16:18.567Z,47.28
2022-09-03T14:18:59.627Z,48.23
2022-09-03T14:21:40.943Z,48.16
2022-09-03T14:24:22.284Z,49.48
2022-09-03T14:26:55.888Z,49.60
2022-09-03T14:29:36.421Z,48.94
2022-09-03T14:32:05.867Z,49.18
2022-09-03T14:35:11.319Z,48.16
2022-09-03T14:38:21.580Z,48.28
2022-09-03T14:41:06.879Z,48.40
2022-09-03T14:44:04.549Z,48.62
2022-09-03T14:46:52.169Z,49.61
2022-09-03T14:49:23.094Z,50.32
2022-09-03T14:51:52.500Z,50.74
2022-09-03T14:54:36.068Z,51.14
2022-09-03T14:57:27.557Z,51.28
2022-09-03T15:00:32.177Z,50.53
2022-09-03T15:03:19.207Z,50.58
2022-09-03T15:06:15.099Z,48.95
2022-09-03T15:08:55.352Z,47.59
2022-09-03T15:11:27.651Z,47.45
2022-09-03T15:14:10.062Z,47.87
2022-09-03T15:16:51.299Z,47.72
2022-09-03T15:19:42.614Z,48.20
2022-09-03T15:22:40.172Z,47.64
2022-09-03T15:25:43.757Z,47.99
2022-09-03T15:28:25.255Z,48.65
2022-09-03T15:30:56.467Z,48.96
2022-09-03T15:33:56.860Z,49.01
2022-09-03T15:36:34.946Z,48.70
2022-09-03T15:39:06.532Z,49.82
2022-09-03T15:42:10.326Z,49.64
2022-09-03T15:44:46.862Z,50.50
2022-09-03T15:47:50.997Z,50.74
2022-09-03T15:50:35.717Z,51.42
2022-09-03T15:53:05.449Z,51.26
2022-09-03T15:55:38.819Z,51.21
2022-09-03T15:58:28.900Z,51.92
2022-09-03T16:01:21.673Z,51.58
2022-09-03T16:03:52.049Z,51.72
2022-09-03T16:06:37.442Z,51.61
2022-09-03T16:09:19.148Z,52.29
2022-09-03T16:11:56.798Z,52.20
2022-09-03T16:14:32.352Z,52.83
2022-09-03T16:17:31.322Z,53.42
2022-09-03T16:20:08.882Z,53.75
2022-09-03T16:23:21.254Z,53.63
2022-09-03T16:26:23.881Z,53.88
2022-09-03T16:28:54.445Z,54.06
2022-09-03T16:31:48.420Z,54.60
2022-09-03T16:34:45.999Z,54.87
2022-09-03T16:37:49.575Z,55.47
2022-09-03T16:40:43.610Z,55.84
2022-09-03T16:43:49.127Z,56.28
2022-09-03T16:46:23.128Z,56.57
2022-09-03T16:49:43.924Z,56.64
2022-09-03T16:52:39.452Z,56.61
2022-09-03T16:55:22.184Z,56.68
2022-09-03T16:58:08.270Z,56.78
2022-09-03T17:00:54.538Z,56.96
2022-09-03T17:03:45.752Z,57.41
2022-09-03T17:06:36.146Z,57.40
2022-09-03T17:09:21.099Z,57.71
2022-09-03T17:12:09.268Z,57.73
2022-09-03T17:15:22.062Z,57.93
2022-09-03T17:18:00.448Z,57.84
2022-09-03T17:20:52.673Z,57.42
2022-09-03T17:23:19.226Z,58.46
2022-09-03T17:25:59.829Z,59.30
2022-09-03T17:28:54.422Z,59.64
2022-09-03T17:31:55.200Z,60.02
2022-09-03T17:34:59.003Z,60.53
2022-09-03T17:37:44.737Z,61.16
2022-09-03T17:40:52.639Z,61.21
2022-09-03T17:43:32.892Z,62.03
2022-09-03T17:46:30.757Z,62.01
2022-09-03T17:49:02.662Z,62.17
2022-09-03T17:51:50.530Z,62.59
2022-09-03T17:54:52.203Z,63.05
2022-09-03T17:57:31.055Z,63.17
2022-09-03T18:00:04.304Z,63.53
2022-09-03T18:02:58.396Z,63.39
2022-09-03T18:05:32.736Z,63.21
2022-09-03T18:08:07.902Z,63.16
2022-09-03T18:10:57.226Z,63.36
2022-09-03T18:13:32.802Z,63.22
2022-09-03T18:16:12.978Z,63.37
2022-09-03T18:18:50.041Z,63.23
2022-09-03T18:21:45.473Z,63.16
2022-09-03T18:25:00.497Z,63.33
2022-09-03T18:27:59.526Z,63.33
2022-09-03T18:30:46.725Z,63.32
2022-09-03T18:33:32.453Z,63.50
2022-09-03T18:36:18.212Z,64.17
2022-09-03T18:39:03.274Z,63.53
2022-09-03T18:41:57.912Z,63.84
2022-09-03T18:45:21.601Z,63.76
2022-09-03T18:48:34.456Z,63.36
2022-09-03T18:51:33.267Z,63.59
2022-09-03T18:55:03.920Z,64.55
2022-09-03T18:57:55.611Z,64.64
2022-09-03T19:00:40.954Z,64.51
2022-09-03T19:03:43.860Z,64.82
2022-09-03T19:06:41.194Z,65.27
2022-09-03T19:09:52.797Z,65.60
2022-09-03T19:12:40.834Z,65.93
2022-09-03T19:15:31.805Z,65.79
2022-09-03T19:18:26.274Z,66.30
2022-09-03T19:21:20.642Z,66.67
2022-09-03T19:24:05.456Z,67.14
2022-09-03T19:27:18.092Z,67.98
2022-09-03T19:30:30.561Z,68.07
2022-09-03T19:33:29.839Z,68.79
2022-09-03T19:36:42.928Z,69.01
2022-09-03T19:39:34.168Z,69.76
2022-09-03T19:42:48.116Z,69.71
2022-09-03T19:45:44.057Z,69.90
2022-09-03T19:48:51.486Z,69.84
2022-09-03T19:51:59.801Z,69.90
2022-09-03T19:54:48.603Z,70.31
2022-09-03T19:57:37.663Z,70.26
2022-09-03T20:00:31.352Z,69.77
2022-09-03T20:03:21.134Z,69.45
2022-09-03T20:06:10.769Z,69.90
2022-09-03T20:08:56.723Z,70.44
2022-09-03T20:11:27.795Z,70.02
2022-09-03T20:14:13.177Z,69.88
2022-09-03T20:16:59.280Z,69.92
2022-09-03T20:19:46.752Z,70.79
2022-09-03T20:22:38.594Z,71.04
2022-09-03T20:25:35.967Z,71.19
2022-09-03T20:28:18.217Z,71.70
2022-09-03T20:31:10.454Z,72.15
2022-09-03T20:33:43.988Z,72.89
2022-09-03T20:36:43.266Z,73.04
2022-09-03T20:39:31.822Z,73.66
2022-09-03T20:42:18.394Z,73.83
2022-09-03T20:45:06.493Z,73.83
2022-09-03T20:48:17.034Z,74.60
2022-09-03T20:50:53.380Z,75.25
2022-09-03T20:53:52.101Z,76.67
2022-09-03T20:56:33.797Z,76.98
2022-09-03T20:59:02.934Z,77.31
2022-09-03T21:01:33.677Z,78.29
2022-09-03T21:04:11.394Z,79.01
2022-09-03T21:06:42.481Z,79.13
2022-09-03T21:09:17.777Z,79.69
2022-09-03T21:12:09.578Z,80.09
2022-09-03T21:14:47.704Z,80.71
2022-09-03T21:17:35.791Z,80.95
2022-09-03T21:20:23.749Z,81.48
2022-09-03T21:23:21.866Z,81.71
2022-09-03T21:25:58.488Z,82.27
2022-09-03T21:28:38.368Z,82.42
2022-09-03T21:31:18.361Z,82.93
2022-09-03T21:33:50.081Z,83.17
2022-09-03T21:36:25.987Z,83.16
2022-09-03T21:38:59.846Z,83.35
2022-09-03T21:41:32.611Z,83.49
2022-09-03T21:44:07.055Z,83.35
2022-09-03T21:46:41.469Z,83.23
2022-09-03T21:49:12.165Z,83.10
2022-09-03T21:51:43.140Z,82.66
2022-09-03T21:54:33.555Z,83.05
2022-09-03T21:57:25.159Z,83.50
2022-09-03T22:00:09.790Z,83.57
2022-09-03T22:02:36.442Z,83.50
2022-09-03T22:05:04.829Z,83.81
2022-09-03T22:07:58.940Z,84.33
2022-09-03T22:11:10.422Z,84.23
2022-09-03T22:13:58.977Z,84.80
2022-09-03T22:16:31.626Z,84.95
2022-09-03T22:18:58.659Z,84.87
2022-09-03T22:21:58.399Z,85.11
2022-09-03T22:24:51.041Z,85.22
2022-09-03T22:27:55.671Z,85.18
2022-09-03T22:30:22.345Z,85.67
2022-09-03T22:33:07.754Z,85.83
2022-09-03T22:36:01.886Z,85.62
2022-09-03T22:38:55.641Z,86.07
2022-09-03T22:41:40.278Z,86.39
2022-09-03T22:44:28.686Z,86.08
2022-09-03T22:47:33.669Z,86.03
2022-09-03T22:50:20.353Z,86.48
2022-09-03T22:53:14.827Z,86.39
2022-09-03T22:55:48.446Z,86.63
2022-09-03T22:58:20.783Z,86.33
2022-09-03T23:00:53.411Z,86.57
2022-09-03T23:03:25.775Z,86.68
2022-09-03T23:06:00.880Z,86.91
2022-09-03T23:08:41.892Z,86.85
2022-09-03T23:11:34.643Z,87.16
2022-09-03T23:14:12.476Z,87.22
2022-09-03T23:16:56.076Z,86.95
2022-09-03T23:19:40.946Z,86.94
2022-09-03T23:22:15.291Z,87.38
2022-09-03T23:24:50.043Z,88.13
2022-09-03T23:27:20.288Z,88.25
2022-09-03T23:29:59.816Z,88.56
2022-09-03T23:32:33.065Z,89.03
2022-09-03T23:35:02.145Z,89.11
2022-09-03T23:37:48.619Z,89.64
2022-09-03T23:40:40.713Z,89.99
2022-09-03T23:43:26.042Z,90.03
2022-09-03T23:46:17.424Z,90.63
2022-09-03T23:48:58.109Z,90.62
2022-09-03T23:51:53.651Z,90.85
2022-09-03T23:54:31.616Z,91.04
2022-09-03T23:57:04.609Z,91.17
2022-09-03T23:59:52.531Z,91.14
